createdAt,value
2022-10-04T00:01:15.810Z,4.00
2022-10-04T00:06:25.909Z,3.80
2022-10-04T00:09:02.693Z,3.70
2022-10-04T00:11:38.381Z,3.70
2022-10-04T00:14:17.800Z,4.10
2022-10-04T00:16:51.377Z,4.50
2022-10-04T00:19:42.770Z,4.30
2022-10-04T00:22:20.511Z,3.80
2022-10-04T00:25:35.600Z,3.90
2022-10-04T00:28:48.240Z,3.80
2022-10-04T00:31:29.659Z,4.00
2022-10-04T00:34:40.300Z,3.90
2022-10-04T00:37:19.889Z,3.90
2022-10-04T00:40:06.619Z,3.70
2022-10-04T00:42:50.231Z,4.50
2022-10-04T00:45:35.521Z,4.20
2022-10-04T00:48:37.495Z,4.20
2022-10-04T00:51:18.969Z,3.80
2022-10-04T00:54:06.410Z,4.20
2022-10-04T00:56:46.771Z,4.00
2022-10-04T00:59:35.650Z,4.30
2022-10-04T04:38:08.605Z,3.20
2022-10-04T04:40:44.149Z,3.90
2022-10-04T04:43:21.173Z,4.60
2022-10-04T04:46:14.963Z,3.60
2022-10-04T04:48:50.011Z,2.90
2022-10-04T04:51:26.741Z,3.30
2022-10-04T04:54:03.975Z,3.50
2022-10-04T04:56:37.989Z,3.30
2022-10-04T04:59:13.432Z,3.20
2022-10-04T05:01:49.066Z,3.10
2022-10-04T05:04:23.732Z,3.60
2022-10-04T05:07:17.146Z,3.70
2022-10-04T05:09:49.164Z,3.70
2022-10-04T05:12:27.555Z,3.30
2022-10-04T05:15:00.163Z,4.00
2022-10-04T05:17:37.451Z,3.70
2022-10-04T05:20:13.103Z,3.60
2022-10-04T05:22:49.731Z,3.50
2022-10-04T05:25:32.773Z,3.70
2022-10-04T05:28:05.650Z,3.60
2022-10-04T05:30:49.054Z,4.50
2022-10-04T05:33:33.213Z,3.80
2022-10-04T05:36:46.966Z,3.70
2022-10-04T05:39:30.494Z,3.90
2022-10-04T05:42:08.973Z,3.70
2022-10-04T05:44:52.134Z,3.70
2022-10-04T05:47:28.503Z,3.90
2022-10-04T05:50:02.303Z,4.10
2022-10-04T05:52:38.151Z,4.40
2022-10-04T05:55:28.801Z,3.90
2022-10-04T05:58:32.581Z,3.60
2022-10-04T06:01:29.821Z,4.50
2022-10-04T06:04:39.585Z,4.00
2022-10-04T06:07:22.053Z,4.40
2022-10-04T06:10:07.461Z,4.20
2022-10-04T06:12:49.661Z,4.40
2022-10-04T06:20:28.884Z,3.80
2022-10-04T06:20:38.461Z,4.30
2022-10-04T06:23:18.844Z,3.70
2022-10-04T06:25:59.373Z,4.40
2022-10-04T06:28:40.862Z,3.70
2022-10-04T06:31:34.734Z,3.80
2022-10-04T06:34:37.421Z,4.00
2022-10-04T06:37:48.194Z,3.50
2022-10-04T06:40:46.483Z,4.10
2022-10-04T06:43:43.002Z,4.50
2022-10-04T06:46:19.600Z,4.50
2022-10-04T06:49:14.562Z,3.80
2022-10-04T06:52:00.415Z,3.90
2022-10-04T06:54:48.913Z,4.20
2022-10-04T06:57:59.422Z,3.60
2022-10-04T07:00:36.774Z,4.40
2022-10-04T07:03:15.871Z,3.70
2022-10-04T07:05:54.343Z,4.60
2022-10-04T07:08:37.223Z,3.90
2022-10-04T07:11:19.081Z,4.00
2022-10-04T07:13:58.201Z,4.50
2022-10-04T07:16:41.662Z,3.60
2022-10-04T07:19:38.183Z,4.10
2022-10-04T07:22:21.205Z,3.70
2022-10-04T07:25:15.226Z,4.00
2022-10-04T07:30:23.682Z,3.60
2022-10-04T07:32:58.643Z,3.90
2022-10-04T07:35:36.865Z,4.00
2022-10-04T07:38:18.591Z,4.00
2022-10-04T07:41:05.276Z,4.60
2022-10-04T07:43:42.313Z,3.90
2022-10-04T07:46:26.945Z,4.20
2022-10-04T07:49:00.443Z,4.50
2022-10-04T07:51:40.393Z,4.60
2022-10-04T07:54:20.083Z,4.00
2022-10-04T07:57:00.861Z,4.50
2022-10-04T07:59:44.683Z,4.20
2022-10-04T08:02:31.033Z,4.40
2022-10-04T08:05:18.644Z,4.30
2022-10-04T08:08:18.686Z,4.30
2022-10-04T08:11:05.663Z,4.70
2022-10-04T08:13:50.103Z,5.10
2022-10-04T08:16:35.242Z,4.70
2022-10-04T08:19:26.662Z,5.40
2022-10-04T08:22:05.911Z,4.10
2022-10-04T08:24:48.941Z,5.10
2022-10-04T08:28:08.376Z,4.50
2022-10-04T08:31:01.080Z,3.80
2022-10-04T08:33:54.993Z,4.20
2022-10-04T08:36:45.652Z,4.50
2022-10-04T08:39:36.382Z,4.30
2022-10-04T08:42:42.073Z,4.70
2022-10-04T08:45:55.867Z,4.60
2022-10-04T08:49:03.461Z,4.10
2022-10-04T08:52:02.990Z,4.50
2022-10-04T08:55:21.066Z,4.40
2022-10-04T08:58:17.137Z,4.50
2022-10-04T09:01:07.261Z,4.30
2022-10-04T09:04:31.333Z,5.10
2022-10-04T09:07:24.065Z,4.80
2022-10-04T09:13:35.793Z,3.70
2022-10-04T09:16:17.943Z,4.10
2022-10-04T09:19:24.582Z,4.00
2022-10-04T09:22:24.450Z,3.50
2022-10-04T09:25:21.544Z,3.80
2022-10-04T09:28:38.905Z,3.90
2022-10-04T09:31:34.524Z,3.20
2022-10-04T09:34:31.697Z,4.90
2022-10-04T09:37:33.083Z,4.00
2022-10-04T09:40:51.002Z,3.80
2022-10-04T09:43:48.256Z,3.70
2022-10-04T09:46:43.540Z,4.00
2022-10-04T09:49:38.170Z,3.10
2022-10-04T09:52:25.224Z,3.80
2022-10-04T09:55:13.143Z,3.70
2022-10-04T09:58:18.653Z,3.20
2022-10-04T10:01:01.365Z,3.50
2022-10-04T10:03:59.152Z,3.40
2022-10-04T10:06:52.844Z,3.30
2022-10-04T10:09:55.612Z,3.70
2022-10-04T10:13:14.682Z,3.30
2022-10-04T10:15:59.910Z,3.40
2022-10-04T10:18:44.503Z,3.10
2022-10-04T10:21:39.710Z,3.70
2022-10-04T10:24:37.820Z,3.50
2022-10-04T10:27:39.912Z,3.30
2022-10-04T10:30:24.850Z,2.80
2022-10-04T10:33:26.802Z,3.10
2022-10-04T10:36:25.585Z,3.20
2022-10-04T10:39:17.540Z,2.70
2022-10-04T10:42:09.670Z,2.70
2022-10-04T10:45:11.842Z,2.80
2022-10-04T10:47:54.471Z,2.90
2022-10-04T10:51:03.021Z,3.10
2022-10-04T10:54:09.493Z,3.10
2022-10-04T10:56:57.104Z,2.80
2022-10-04T11:00:20.075Z,3.00
2022-10-04T11:03:32.038Z,3.10
2022-10-04T11:06:38.573Z,3.20
2022-10-04T11:09:30.002Z,3.00
2022-10-04T11:12:39.376Z,3.10
2022-10-04T11:15:41.908Z,2.80
2022-10-04T11:18:47.032Z,3.00
2022-10-04T11:21:55.000Z,2.70
2022-10-04T11:25:05.590Z,3.00
2022-10-04T11:27:59.330Z,3.10
2022-10-04T11:30:53.316Z,2.90
2022-10-04T11:36:31.653Z,3.20
2022-10-04T11:39:44.908Z,3.10
2022-10-04T11:42:30.724Z,2.90
2022-10-04T11:45:22.012Z,2.90
2022-10-04T11:48:11.703Z,2.70
2022-10-04T11:51:06.470Z,2.70
2022-10-04T11:54:07.865Z,2.50
2022-10-04T11:57:15.231Z,2.30
2022-10-04T12:00:04.320Z,2.20
2022-10-04T12:03:29.337Z,2.30
2022-10-04T12:06:23.173Z,2.00
2022-10-04T12:12:35.791Z,2.90
2022-10-04T12:15:20.571Z,3.20
2022-10-04T12:18:28.840Z,2.20
2022-10-04T12:21:18.201Z,1.70
2022-10-04T12:24:23.812Z,1.60
2022-10-04T12:27:13.802Z,2.20
2022-10-04T12:30:22.176Z,2.20
2022-10-04T12:33:13.320Z,2.00
2022-10-04T12:36:13.843Z,2.50
2022-10-04T12:39:16.981Z,2.30
2022-10-04T12:41:59.645Z,2.10
2022-10-04T12:44:44.452Z,2.20
2022-10-04T12:48:01.561Z,1.90
2022-10-04T12:50:54.626Z,2.30
2022-10-04T12:53:38.433Z,2.30
2022-10-04T12:56:22.759Z,2.40
2022-10-04T12:59:29.672Z,1.70
2022-10-04T13:02:16.161Z,2.10
2022-10-04T13:04:56.053Z,1.80
2022-10-04T13:08:05.491Z,1.80
2022-10-04T13:11:01.400Z,2.20
2022-10-04T13:14:02.543Z,1.80
2022-10-04T13:19:53.481Z,1.90
2022-10-04T13:22:55.902Z,1.70
2022-10-04T13:26:03.580Z,1.90
2022-10-04T13:28:49.052Z,1.50
2022-10-04T13:31:28.066Z,1.50
2022-10-04T13:34:12.681Z,1.20
2022-10-04T13:37:01.091Z,2.00
2022-10-04T13:39:52.593Z,1.50
2022-10-04T13:42:50.380Z,1.70
2022-10-04T13:45:45.696Z,2.00
2022-10-04T13:48:32.101Z,1.70
2022-10-04T13:51:27.250Z,1.50
2022-10-04T13:54:44.065Z,1.40
2022-10-04T13:57:25.860Z,1.40
2022-10-04T14:00:07.510Z,1.70
2022-10-04T14:03:16.636Z,1.80
2022-10-04T14:06:13.743Z,2.00
2022-10-04T14:09:17.241Z,2.40
2022-10-04T14:12:22.055Z,6.60
2022-10-04T14:15:26.542Z,4.20
2022-10-04T14:18:28.251Z,2.30
2022-10-04T14:21:39.622Z,1.80
2022-10-04T14:24:47.865Z,2.40
2022-10-04T14:27:40.172Z,4.30
2022-10-04T14:30:23.481Z,2.20
2022-10-04T14:33:17.213Z,2.50
2022-10-04T14:35:54.665Z,2.90
2022-10-04T14:39:01.750Z,4.60
2022-10-04T14:42:04.651Z,2.70
2022-10-04T14:45:07.058Z,2.50
2022-10-04T14:48:08.381Z,1.60
2022-10-04T14:50:58.082Z,2.30
2022-10-04T14:53:38.631Z,2.20
2022-10-04T14:56:36.771Z,2.20
2022-10-04T14:59:33.698Z,2.80
2022-10-04T15:02:38.362Z,4.40
2022-10-04T15:05:40.504Z,3.00
2022-10-04T15:12:27.203Z,2.20
2022-10-04T15:15:21.611Z,2.60
2022-10-04T15:18:03.768Z,2.20
2022-10-04T15:20:54.371Z,2.20
2022-10-04T15:23:38.191Z,2.10
2022-10-04T15:26:47.896Z,1.80
2022-10-04T15:29:30.031Z,1.90
2022-10-04T15:32:20.221Z,3.70
2022-10-04T15:35:07.242Z,3.50
2022-10-04T15:37:49.813Z,2.50
2022-10-04T15:40:34.880Z,3.40
2022-10-04T15:43:30.980Z,2.80
2022-10-04T15:46:38.993Z,2.70
2022-10-04T15:49:32.327Z,3.30
2022-10-04T15:52:41.942Z,3.40
2022-10-04T15:55:30.375Z,4.10
2022-10-04T15:58:31.353Z,3.30
2022-10-04T16:01:26.563Z,13.80
2022-10-04T16:04:22.176Z,24.10
2022-10-04T16:06:59.991Z,23.50
2022-10-04T16:09:43.943Z,17.90
2022-10-04T16:12:33.432Z,8.50
2022-10-04T16:15:20.111Z,5.80
2022-10-04T16:18:31.132Z,4.90
2022-10-04T16:21:29.783Z,3.80
2022-10-04T16:24:42.013Z,3.60
2022-10-04T16:27:47.842Z,3.30
2022-10-04T16:30:29.056Z,3.00
2022-10-04T16:33:25.531Z,3.10
2022-10-04T16:36:12.200Z,2.50
2022-10-04T16:39:11.256Z,3.50
2022-10-04T16:41:55.092Z,3.30
2022-10-04T16:44:38.201Z,6.30
2022-10-04T16:47:24.562Z,4.80
2022-10-04T16:50:05.193Z,11.00
2022-10-04T16:52:49.673Z,4.30
2022-10-04T16:55:46.335Z,9.60
2022-10-04T16:58:45.262Z,4.20
2022-10-04T17:02:00.502Z,9.00
2022-10-04T17:05:03.317Z,9.00
2022-10-04T17:07:50.700Z,6.70
2022-10-04T17:10:38.572Z,13.10
2022-10-04T17:13:26.930Z,11.60
2022-10-04T17:16:06.041Z,15.30
2022-10-04T17:18:51.492Z,4.90
2022-10-04T17:21:38.730Z,8.90
2022-10-04T17:24:24.455Z,41.00
2022-10-04T17:27:17.572Z,94.20
2022-10-04T17:30:03.640Z,27.40
2022-10-04T17:32:59.202Z,12.00
2022-10-04T17:36:02.463Z,8.00
2022-10-04T17:38:44.881Z,11.00
2022-10-04T17:41:25.322Z,9.80
2022-10-04T17:44:34.481Z,7.90
2022-10-04T17:47:18.095Z,4.70
2022-10-04T17:50:22.199Z,4.40
2022-10-04T17:53:23.559Z,4.00
2022-10-04T17:56:02.826Z,4.30
2022-10-04T17:58:45.831Z,4.40
2022-10-04T18:01:28.654Z,4.50
2022-10-04T18:04:11.270Z,4.20
2022-10-04T18:06:50.892Z,3.90
2022-10-04T18:09:33.760Z,4.30
2022-10-04T18:12:13.022Z,4.40
2022-10-04T18:15:00.872Z,3.80
2022-10-04T18:17:39.999Z,4.10
2022-10-04T18:20:34.030Z,4.40
2022-10-04T18:23:21.692Z,4.20
2022-10-04T18:25:59.463Z,4.60
2022-10-04T18:28:35.642Z,4.70
2022-10-04T18:31:37.542Z,5.60
2022-10-04T18:34:32.350Z,4.70
2022-10-04T18:37:21.902Z,4.90
2022-10-04T18:39:56.760Z,5.10
2022-10-04T18:42:37.492Z,5.80
2022-10-04T18:45:24.382Z,6.20
2022-10-04T18:47:58.909Z,5.50
2022-10-04T18:50:54.513Z,5.50
2022-10-04T18:53:51.823Z,5.60
2022-10-04T18:56:24.731Z,4.50
2022-10-04T18:59:36.542Z,4.90
2022-10-04T19:02:18.244Z,5.20
2022-10-04T19:04:59.599Z,5.90
2022-10-04T19:07:40.292Z,7.50
2022-10-04T19:10:38.012Z,7.60
2022-10-04T19:13:26.731Z,8.60
2022-10-04T19:16:13.367Z,9.40
2022-10-04T19:18:59.670Z,11.50
2022-10-04T19:21:41.841Z,12.40
2022-10-04T19:24:44.421Z,11.10
2022-10-04T19:27:27.162Z,11.40
2022-10-04T19:30:22.880Z,9.10
2022-10-04T19:33:15.402Z,10.10
2022-10-04T19:36:00.470Z,9.80
2022-10-04T19:38:51.951Z,9.30
2022-10-04T19:41:39.678Z,9.20
2022-10-04T19:44:27.980Z,8.60
2022-10-04T19:47:06.601Z,9.20
2022-10-04T19:49:51.650Z,9.60
2022-10-04T19:52:33.267Z,10.10
2022-10-04T19:55:23.501Z,9.30
2022-10-04T19:58:06.207Z,10.30
2022-10-04T20:00:41.429Z,10.10
2022-10-04T20:03:15.321Z,9.70
2022-10-04T20:05:49.605Z,10.60
2022-10-04T20:08:55.682Z,10.20
2022-10-04T20:11:50.455Z,9.40
2022-10-04T20:14:55.912Z,9.60
2022-10-04T20:17:41.510Z,10.20
2022-10-04T20:20:17.961Z,11.10
2022-10-04T20:23:02.862Z,9.60
2022-10-04T20:26:09.162Z,10.30
2022-10-04T20:28:44.241Z,9.20
2022-10-04T20:31:55.220Z,9.70
2022-10-04T20:34:35.883Z,9.50
2022-10-04T20:37:09.362Z,10.00
2022-10-04T20:40:01.846Z,10.90
2022-10-04T20:42:39.429Z,10.40
2022-10-04T20:45:31.824Z,10.90
2022-10-04T20:48:04.160Z,10.60
2022-10-04T20:50:41.012Z,11.60
2022-10-04T20:53:22.074Z,11.80
2022-10-04T20:56:11.418Z,10.30
2022-10-04T20:58:44.035Z,9.30
2022-10-04T21:01:44.280Z,10.50
2022-10-04T21:04:30.866Z,12.10
2022-10-04T21:07:06.025Z,13.40
2022-10-04T21:09:41.150Z,10.50
2022-10-04T21:12:38.462Z,10.50
2022-10-04T21:15:22.518Z,11.40
2022-10-04T21:18:06.562Z,12.60
2022-10-04T21:20:49.432Z,12.20
2022-10-04T21:23:30.460Z,12.80
2022-10-04T21:26:22.775Z,11.00
2022-10-04T21:28:58.882Z,12.10
2022-10-04T21:31:31.137Z,11.70
2022-10-04T21:34:03.903Z,12.30
2022-10-04T21:36:36.323Z,12.20
2022-10-04T21:39:09.373Z,12.30
2022-10-04T21:41:44.532Z,11.80
2022-10-04T21:44:16.924Z,12.10
2022-10-04T21:46:49.131Z,12.70
2022-10-04T21:49:21.480Z,14.20
2022-10-04T21:51:56.471Z,14.20
2022-10-04T21:54:28.583Z,11.90
2022-10-04T21:57:00.911Z,13.20
2022-10-04T21:59:33.072Z,13.90
2022-10-04T22:02:05.616Z,13.50
2022-10-04T22:04:39.050Z,13.50
2022-10-04T22:07:11.230Z,12.80
2022-10-04T22:09:43.475Z,13.40
2022-10-04T22:12:15.802Z,13.20
2022-10-04T22:14:48.112Z,14.20
2022-10-04T22:17:20.280Z,14.40
2022-10-04T22:20:12.921Z,13.60
2022-10-04T22:22:45.142Z,13.80
2022-10-04T22:25:37.448Z,13.70
2022-10-04T22:28:20.713Z,14.60
2022-10-04T22:30:56.000Z,15.20
2022-10-04T22:33:34.370Z,14.80
2022-10-04T22:36:17.738Z,16.30
2022-10-04T22:38:58.087Z,12.70
2022-10-04T22:41:34.654Z,13.40
2022-10-04T22:44:13.463Z,13.90
2022-10-04T22:46:48.054Z,15.00
2022-10-04T22:49:23.380Z,15.40
2022-10-04T22:52:00.410Z,14.00
2022-10-04T22:54:37.450Z,14.70
2022-10-04T22:57:11.163Z,14.20
2022-10-04T23:02:24.318Z,13.40
2022-10-04T23:04:58.758Z,14.60
2022-10-04T23:07:33.790Z,14.10
2022-10-04T23:10:11.940Z,14.90
2022-10-04T23:12:49.469Z,15.70
2022-10-04T23:15:23.052Z,16.00
2022-10-04T23:20:50.099Z,14.50
2022-10-04T23:23:22.697Z,17.90
2022-10-04T23:25:55.247Z,17.40
2022-10-04T23:28:27.751Z,17.90
2022-10-04T23:31:09.338Z,17.10
2022-10-04T23:33:44.088Z,17.10
2022-10-04T23:36:17.370Z,17.60
2022-10-04T23:38:51.286Z,16.90
2022-10-04T23:41:23.758Z,18.60
2022-10-04T23:43:55.878Z,17.40
2022-10-04T23:46:28.379Z,17.20
2022-10-04T23:49:00.658Z,18.30
2022-10-04T23:51:32.996Z,20.00
2022-10-04T23:54:07.285Z,18.80
2022-10-04T23:56:39.968Z,18.10
2022-10-04T23:59:17.615Z,18.20
